Flight Track Log - Related Links

Times and Time Zones

All times are in EDT time to prevent confusion due to time zone crossing. See the N2831T flight status page for this flight to view local times or setup timezone preferences in your user account.


Time Position Orientation Groundspeed Altitude Reporting Facility
EDT Latitude Longitude Course Direction KTS MPH feet Rate Location/Type
Sat 10:28:52 AM 42.5594 -83.7883 225° Southwest 71 82 1,300  Level Cleveland Center
Sat 10:30:05 AM 42.5397 -83.8156 225° Southwest 90 104 1,800 326 Climbing Cleveland Center
Sat 10:31:01 AM 42.5228 -83.8317 215° Southwest 82 94 2,000 259 Climbing Cleveland Center
Sat 10:32:01 AM 42.5019 -83.8333 183° South 87 100 2,300 344 Climbing Cleveland Center
Sat 10:33:03 AM 42.4797 -83.8039 136° Southeast 113 130 2,700 390 Climbing Cleveland Center
Sat 10:34:04 AM 42.4617 -83.7750 130° Southeast 108 124 3,100 341 Climbing Cleveland Center
Sat 10:35:06 AM 42.4417 -83.7458 133° Southeast 107 123 3,400 293 Climbing Cleveland Center
Sat 10:36:07 AM 42.4178 -83.7108 133° Southeast 106 122 3,700 344 Climbing Cleveland Center
Sat 10:37:08 AM 42.3997 -83.6847 133° Southeast 106 122 4,100 344 Climbing Cleveland Center
Sat 10:38:09 AM 42.3817 -83.6500 125° Southeast 110 127 4,400 344 Climbing Cleveland Center
Sat 10:39:10 AM 42.3639 -83.6125 123° Southeast 108 124 4,800 393 Climbing Cleveland Center
Sat 10:40:11 AM 42.3503 -83.5783 118° Southeast 107 123 5,200 393 Climbing Cleveland Center
Sat 10:41:12 AM 42.3325 -83.5464 127° Southeast 104 120 5,600 390 Climbing Cleveland Center
Sat 10:42:14 AM 42.3186 -83.5122 119° Southeast 104 120 6,000 146 Climbing Cleveland Center
Sat 10:43:15 AM 42.2989 -83.4719 123° Southeast 130 150 5,900  Descending Cleveland Center
Sat 10:44:22 AM 42.2789 -83.4344 126° Southeast 119 137 6,000 49 Climbing Cleveland Center
Sat 10:45:17 AM 42.2631 -83.3972 120° Southeast 119 137 6,000  Level Cleveland Center
Sat 10:46:18 AM 42.2433 -83.3572 124° Southeast 123 142 6,000 -49 Level Cleveland Center
Sat 10:47:19 AM 42.2361 -83.3092 101° East 127 146 5,900 -49 Descending Cleveland Center
Sat 10:48:20 AM 42.2267 -83.2639 106° East 125 144 5,900  Level Cleveland Center
Sat 10:49:21 AM 42.2153 -83.2214 110° East 126 145 5,900 49 Level Cleveland Center
Sat 10:50:22 AM 42.2058 -83.1761 106° East 122 140 6,000 49 Climbing Cleveland Center
Sat 10:51:23 AM 42.1986 -83.1311 102° East 120 138 6,000 197 Level Cleveland Center
Sat 10:52:24 AM 42.1889 -83.0886 107° East 111 128 6,400 344 Climbing Cleveland Center
Sat 10:53:25 AM 42.1836 -83.0519 101° East 101 116 6,700 344 Climbing Cleveland Center
Sat 10:54:26 AM 42.1739 -83.0122 108° East 106 122 7,100 344 Climbing Cleveland Center
Sat 10:55:27 AM 42.1686 -82.9700 100° East 108 124 7,400 295 Climbing Cleveland Center
Sat 10:56:28 AM 42.1589 -82.9306 108° East 108 124 7,700 286 Climbing Cleveland Center
Sat 10:56:51 AM 42.1550 -82.9192 115° Southeast 110 127 7,800 286 Climbing Cleveland Center
Sat 10:57:52 AM 42.1497 -82.8769 100° East 124 143 8,100 300 Climbing Cleveland Center
Sat 10:58:51 AM 42.1400 -82.8403 110° East 117 135 8,400 303 Climbing Cleveland Center
Sat 10:59:51 AM 42.1283 -82.8006 112° Southeast 112 129 8,700 250 Climbing Cleveland Center
Sat 11:00:51 AM 42.1036 -82.7744 142° Southeast 107 123 8,900 150 Climbing Cleveland Center
Sat 11:01:51 AM 42.0792 -82.7514 145° Southeast 107 123 9,000 50 Climbing Cleveland Center
Sat 11:02:51 AM 42.0525 -82.7281 147° Southeast 113 130 9,000 -50 Level Cleveland Center
Sat 11:03:51 AM 42.0217 -82.7017 148° Southeast 125 144 8,900 -50 Descending Cleveland Center
Sat 11:04:51 AM 41.9928 -82.6786 149° Southeast 125 144 8,900  Level Cleveland Center
Sat 11:05:51 AM 41.9661 -82.6553 147° Southeast 125 144 8,900  Level Cleveland Center
Sat 11:06:51 AM 41.9375 -82.6292 146° Southeast 125 144 8,900 50 Level Cleveland Center
Sat 11:07:51 AM 41.9131 -82.6061 145° Southeast 125 144 9,000 50 Climbing Cleveland Center
Sat 11:08:51 AM 41.8842 -82.5828 149° Southeast 120 138 9,000  Level Cleveland Center
Sat 11:09:51 AM 41.8575 -82.5597 147° Southeast 120 138 9,000  Level Cleveland Center
Sat 11:10:51 AM 41.8308 -82.5339 144° Southeast 120 138 9,000  Level Cleveland Center
Sat 11:11:12 AM 41.8183 -82.5281 161° South 121 139 9,000  Level Cleveland Center
Sat 11:11:51 AM 41.8019 -82.5081 138° Southeast 120 138 9,000  Level Cleveland Center
Sat 11:12:13 AM 41.7917 -82.4992 147° Southeast 120 138 9,000  Level Cleveland Center
Sat 11:12:51 AM 41.7733 -82.4792 141° Southeast 125 144 9,000  Level Cleveland Center
Sat 11:13:13 AM 41.7589 -82.4706 156° South 127 146 9,000 -100 Level Cleveland Center
Sat 11:13:51 AM 41.7444 -82.4533 138° Southeast 120 138 8,900 -98 Descending Cleveland Center
Sat 11:14:14 AM 41.7303 -82.4417 148° Southeast 129 148 8,900  Level Cleveland Center
Sat 11:14:51 AM 41.7139 -82.4247 142° Southeast 120 138 8,900  Level Cleveland Center
Sat 11:15:15 AM 41.6994 -82.4131 149° Southeast 127 146 8,900  Level Cleveland Center
Sat 11:15:51 AM 41.6850 -82.3958 138° Southeast 120 138 8,900  Level Cleveland Center
Sat 11:16:16 AM 41.6706 -82.3900 163° South 126 145 8,900 100 Level Cleveland Center
Sat 11:16:51 AM 41.6564 -82.3700 133° Southeast 120 138 9,000 100 Climbing Cleveland Center
Sat 11:17:16 AM 41.6439 -82.3614 153° Southeast 125 144 9,000  Level Cleveland Center
Sat 11:17:51 AM 41.6275 -82.3417 138° Southeast 125 144 9,000  Level Cleveland Center
Sat 11:18:17 AM 41.6150 -82.3328 152° Southeast 124 143 9,000  Level Cleveland Center
Sat 11:18:51 AM 41.6008 -82.3158 138° Southeast 120 138 9,000  Level Cleveland Center
Sat 11:19:18 AM 41.5844 -82.3017 147° Southeast 124 143 9,000  Level Cleveland Center
Sat 11:20:19 AM 41.5597 -82.2758 142° Southeast 124 143 9,000  Level Cleveland Center
Sat 11:21:20 AM 41.5308 -82.2503 146° Southeast 127 146 9,000 -50 Level Cleveland Center
Sat 11:22:20 AM 41.5000 -82.2217 145° Southeast 126 145 8,900  Descending Cleveland Center
Sat 11:23:21 AM 41.4733 -82.1961 144° Southeast 125 144 9,000  Climbing Cleveland Center
Sat 11:24:22 AM 41.4444 -82.1647 141° Southeast 124 143 8,900  Descending Cleveland Center
Sat 11:25:23 AM 41.4136 -82.1364 145° Southeast 127 146 9,000 92 Climbing Cleveland Center
Sat 11:25:27 AM 41.4136 -82.1336 90° East 124 143 9,000 -98 Level Cleveland Center
Sat 11:26:24 AM 41.3869 -82.1081 144° Southeast 126 145 8,900 -100 Descending Cleveland Center
Sat 11:26:27 AM 41.3850 -82.1053 133° Southeast 124 143 8,900 98 Level Cleveland Center
Sat 11:27:25 AM 41.3581 -82.0825 148° Southeast 127 146 9,000 100 Climbing Cleveland Center
Sat 11:27:27 AM 41.3581 -82.0769 90° East 124 143 9,000  Level Cleveland Center
Sat 11:28:25 AM 41.3292 -82.0542 149° Southeast 126 145 9,000  Level Cleveland Center
Sat 11:28:27 AM 41.3294 -82.0486 86° East 124 143 9,000  Level Cleveland Center
Sat 11:29:26 AM 41.3025 -82.0258 148° Southeast 126 145 9,000  Level Cleveland Center
Sat 11:29:27 AM 41.3006 -82.0231 133° Southeast 124 143 9,000  Level Cleveland Center
Sat 11:30:27 AM 41.2717 -81.9947 144° Southeast 125 144 9,000  Level Cleveland Center
Sat 11:31:27 AM 41.2428 -81.9694 147° Southeast 124 143 9,000  Level Cleveland Center
Sat 11:32:27 AM 41.2139 -81.9411 144° Southeast 135 155 9,000 -50 Level Cleveland Center
Sat 11:33:27 AM 41.1831 -81.9156 148° Southeast 135 155 8,900 -50 Descending Cleveland Center
Sat 11:34:27 AM 41.1603 -81.8906 140° Southeast 135 155 8,900  Level Cleveland Center
Sat 11:35:27 AM 41.1314 -81.8650 146° Southeast 130 150 8,900 50 Level Cleveland Center
Sat 11:36:27 AM 41.1025 -81.8397 147° Southeast 125 144 9,000 100 Climbing Cleveland Center
Sat 11:37:27 AM 41.0736 -81.8142 146° Southeast 125 144 9,100  Climbing Cleveland Center
Sat 11:38:27 AM 41.0469 -81.7864 142° Southeast 125 144 9,000 -50 Descending Cleveland Center
Sat 11:39:27 AM 41.0178 -81.7611 147° Southeast 125 144 9,000  Level Cleveland Center
Sat 11:40:27 AM 40.9869 -81.7383 151° Southeast 125 144 9,000  Level Cleveland Center
Sat 11:41:27 AM 40.9581 -81.7103 144° Southeast 125 144 9,000  Level Cleveland Center
Sat 11:42:27 AM 40.9269 -81.6822 146° Southeast 125 144 9,000 50 Level Cleveland Center
Sat 11:43:27 AM 40.8981 -81.6544 144° Southeast 125 144 9,100 50 Climbing Cleveland Center
Sat 11:44:27 AM 40.8711 -81.6292 145° Southeast 125 144 9,100  Level Cleveland Center
Sat 11:45:27 AM 40.8422 -81.6014 144° Southeast 125 144 9,100  Level Cleveland Center
Sat 11:46:27 AM 40.8111 -81.5733 146° Southeast 125 144 9,100  Level Cleveland Center
Sat 11:47:27 AM 40.7844 -81.5483 145° Southeast 125 144 9,100  Level Cleveland Center
Sat 11:48:27 AM 40.7553 -81.5206 144° Southeast 125 144 9,100  Level Cleveland Center
Sat 11:49:27 AM 40.7244 -81.4928 146° Southeast 125 144 9,100 -50 Level Cleveland Center
Sat 11:50:27 AM 40.6933 -81.4622 143° Southeast 125 144 9,000 -50 Descending Cleveland Center
Sat 11:51:27 AM 40.6642 -81.4372 147° Southeast 125 144 9,000  Level Cleveland Center
Sat 11:52:27 AM 40.6375 -81.4122 145° Southeast 125 144 9,000 50 Level Cleveland Center
Sat 11:53:27 AM 40.6064 -81.3844 146° Southeast 125 144 9,100 50 Climbing Cleveland Center
Sat 11:54:27 AM 40.5794 -81.3486 135° Southeast 125 144 9,100 -50 Level Cleveland Center
Sat 11:55:27 AM 40.5506 -81.3181 141° Southeast 125 144 9,000 -50 Descending Cleveland Center
Sat 11:56:27 AM 40.5236 -81.2906 142° Southeast 125 144 9,000  Level Cleveland Center
Sat 11:57:27 AM 40.4944 -81.2603 142° Southeast 125 144 9,000  Level Cleveland Center
Sat 11:58:27 AM 40.4675 -81.2325 142° Southeast 125 144 9,000 -50 Level Cleveland Center
Sat 11:59:27 AM 40.4386 -81.2050 144° Southeast 125 144 8,900  Descending Cleveland Center
Sat 12:00:27 PM 40.4117 -81.1747 139° Southeast 125 144 9,000 50 Climbing Cleveland Center
Sat 12:01:27 PM 40.3825 -81.1500 147° Southeast 125 144 9,000  Level Cleveland Center
Sat 12:02:27 PM 40.3536 -81.1197 141° Southeast 125 144 9,000 -50 Level Cleveland Center
Sat 12:03:27 PM 40.3244 -81.0950 147° Southeast 125 144 8,900 -50 Descending Cleveland Center
Sat 12:04:27 PM 40.2956 -81.0675 144° Southeast 125 144 8,900  Level Cleveland Center
Sat 12:05:27 PM 40.2683 -81.0403 143° Southeast 125 144 8,900  Level Cleveland Center
Sat 12:06:27 PM 40.2394 -81.0128 144° Southeast 125 144 8,900  Level Cleveland Center
Sat 12:07:27 PM 40.2125 -80.9856 142° Southeast 125 144 8,900  Level Cleveland Center
Sat 12:08:27 PM 40.1833 -80.9553 142° Southeast 125 144 8,900 50 Level Cleveland Center
Sat 12:09:27 PM 40.1564 -80.9281 142° Southeast 125 144 9,000 50 Climbing Cleveland Center
Sat 12:10:27 PM 40.1272 -80.8981 142° Southeast 125 144 9,000  Level Cleveland Center
Sat 12:11:27 PM 40.1003 -80.8681 140° Southeast 125 144 9,000  Level Cleveland Center
Sat 12:12:27 PM 40.0731 -80.8408 143° Southeast 125 144 9,000 50 Level Cleveland Center
Sat 12:13:27 PM 40.0461 -80.8108 140° Southeast 125 144 9,100 50 Climbing Cleveland Center
Sat 12:14:27 PM 40.0192 -80.7783 137° Southeast 125 144 9,100 -50 Level Cleveland Center
Sat 12:15:27 PM 39.9983 -80.7403 126° Southeast 125 144 9,000  Descending Cleveland Center
Sat 12:16:27 PM 39.9733 -80.7050 133° Southeast 130 150 9,100  Climbing Cleveland Center
Sat 12:17:27 PM 39.9525 -80.6669 126° Southeast 130 150 9,000 -50 Descending Cleveland Center
Sat 12:18:27 PM 39.9317 -80.6292 126° Southeast 130 150 9,000  Level Cleveland Center
Sat 12:19:27 PM 39.9086 -80.5911 128° Southeast 130 150 9,000  Level Cleveland Center
Sat 12:20:27 PM 39.8878 -80.5533 126° Southeast 130 150 9,000  Level Cleveland Center
Sat 12:21:27 PM 39.8692 -80.5156 123° Southeast 130 150 9,000  Level Cleveland Center
Sat 12:22:27 PM 39.8525 -80.4722 117° Southeast 130 150 9,000  Level Cleveland Center
Sat 12:23:27 PM 39.8336 -80.4344 123° Southeast 130 150 9,000 50 Level Cleveland Center
Sat 12:24:27 PM 39.8169 -80.3967 120° Southeast 130 150 9,100 50 Climbing Cleveland Center
Sat 12:25:27 PM 39.7981 -80.3561 121° Southeast 125 144 9,100  Level Cleveland Center
Sat 12:26:27 PM 39.7792 -80.3156 121° Southeast 125 144 9,100  Level Cleveland Center
Sat 12:27:27 PM 39.7625 -80.2778 120° Southeast 125 144 9,100 50 Level Cleveland Center
Sat 12:28:27 PM 39.7456 -80.2403 120° Southeast 125 144 9,200  Climbing Cleveland Center
Sat 12:29:27 PM 39.7289 -80.1997 118° Southeast 125 144 9,100 -50 Descending Cleveland Center
Sat 12:30:27 PM 39.7100 -80.1594 121° Southeast 125 144 9,100  Level Cleveland Center
Sat 12:31:27 PM 39.6931 -80.1244 122° Southeast 125 144 9,100  Level Cleveland Center
Sat 12:32:27 PM 39.6722 -80.0869 126° Southeast 125 144 9,100  Level Cleveland Center
Sat 12:33:27 PM 39.6553 -80.0464 118° Southeast 125 144 9,100 -50 Level Cleveland Center
Sat 12:34:27 PM 39.6364 -80.0089 123° Southeast 125 144 9,000 -50 Descending Cleveland Center
Sat 12:35:27 PM 39.6153 -79.9714 126° Southeast 125 144 9,000  Level Cleveland Center
Sat 12:36:27 PM 39.5942 -79.9339 126° Southeast 125 144 9,000  Level Cleveland Center
Sat 12:37:27 PM 39.5753 -79.8964 123° Southeast 125 144 9,000  Level Cleveland Center
Sat 12:38:27 PM 39.5603 -79.8561 116° Southeast 125 144 9,000 50 Level Cleveland Center
Sat 12:39:27 PM 39.5456 -79.8186 117° Southeast 125 144 9,100 50 Climbing Cleveland Center
Sat 12:40:27 PM 39.5306 -79.7783 116° Southeast 120 138 9,100  Level Cleveland Center
Sat 12:41:27 PM 39.5136 -79.7383 119° Southeast 120 138 9,100  Level Cleveland Center
Sat 12:42:27 PM 39.4989 -79.6981 115° Southeast 120 138 9,100  Level Cleveland Center
Sat 12:43:27 PM 39.4861 -79.6578 112° Southeast 120 138 9,100  Level Cleveland Center
Sat 12:44:42 PM 39.4675 -79.6106 117° Southeast 117 135 9,100  Level Washington Center
Sat 12:45:44 PM 39.4522 -79.5667 114° Southeast 117 135 9,100  Level Washington Center
Sat 12:46:45 PM 39.4367 -79.5311 120° Southeast 122 140 9,100  Level Washington Center
Sat 12:47:42 PM 39.4214 -79.4872 114° Southeast 122 140 9,100  Level Washington Center
Sat 12:48:43 PM 39.4061 -79.4489 117° Southeast 122 140 9,100  Level Washington Center
Sat 12:49:43 PM 39.3908 -79.4078 116° Southeast 122 140 9,100  Level Washington Center
Sat 12:50:44 PM 39.3753 -79.3667 116° Southeast 122 140 9,100  Level Washington Center
Sat 12:51:42 PM 39.3597 -79.3281 118° Southeast 122 140 9,100  Level Washington Center
Sat 12:52:43 PM 39.3444 -79.2872 116° Southeast 122 140 9,100 -49 Level Washington Center
Sat 12:53:44 PM 39.3228 -79.2431 122° Southeast 128 147 9,000 -101 Descending Washington Center
Sat 12:54:42 PM 39.3075 -79.2019 116° Southeast 133 153 8,900  Descending Washington Center
Sat 12:55:43 PM 39.2919 -79.1611 116° Southeast 128 147 9,000  Climbing Washington Center
Sat 12:56:43 PM 39.2744 -79.1228 121° Southeast 123 142 8,900  Descending Washington Center
Sat 12:57:44 PM 39.2608 -79.0817 113° Southeast 123 142 9,000  Climbing Washington Center
Sat 12:58:42 PM 39.2475 -79.0436 114° Southeast 123 142 8,900 -50 Descending Washington Center
Sat 12:59:43 PM 39.2300 -79.0025 119° Southeast 123 142 8,900  Level Washington Center
Sat 01:00:43 PM 39.2122 -78.9642 121° Southeast 123 142 8,900 50 Level Washington Center
Sat 01:01:44 PM 39.1944 -78.9258 121° Southeast 123 142 9,000 50 Climbing Washington Center
Sat 01:02:44 PM 39.1767 -78.8903 123° Southeast 123 142 9,000 -51 Level Washington Center
Sat 01:03:42 PM 39.1569 -78.8519 124° Southeast 123 142 8,900 -51 Descending Washington Center
Sat 01:04:42 PM 39.1392 -78.8111 119° Southeast 123 142 8,900  Level Washington Center
Sat 01:05:43 PM 39.1214 -78.7781 125° Southeast 123 142 8,900 50 Level Washington Center
Sat 01:06:43 PM 39.1017 -78.7397 124° Southeast 123 142 9,000 50 Climbing Washington Center
Sat 01:07:44 PM 39.0836 -78.7042 123° Southeast 123 142 9,000  Level Washington Center
Sat 01:08:44 PM 39.0658 -78.6661 121° Southeast 123 142 9,000  Level Washington Center
Sat 01:09:44 PM 39.0481 -78.6281 121° Southeast 123 142 9,000  Level Washington Center
Sat 01:10:42 PM 39.0283 -78.5897 124° Southeast 123 142 9,000  Level Washington Center
Sat 01:11:42 PM 39.0125 -78.5489 117° Southeast 123 142 9,000 -50 Level Washington Center
Sat 01:12:43 PM 38.9947 -78.5108 121° Southeast 123 142 8,900 -49 Descending Washington Center
Sat 01:13:44 PM 38.9792 -78.4703 116° Southeast 123 142 8,900  Level Washington Center
Sat 01:14:44 PM 38.9611 -78.4322 121° Southeast 123 142 8,900  Level Washington Center
Sat 01:15:42 PM 38.9433 -78.3939 121° Southeast 123 142 8,900  Level Washington Center
Sat 01:16:42 PM 38.9256 -78.3533 119° Southeast 123 142 8,900 -214 Level Washington Center
Sat 01:18:30 PM 38.9000 -78.2667 111° Southeast 146 168 8,300 -405 Descending Potomac TRACON
Sat 01:19:25 PM 38.9000 -78.2167 90° East 152 175 7,800 -574 Descending Potomac TRACON
Sat 01:20:25 PM 38.8833 -78.1667 113° Southeast 153 176 7,200 -619 Descending Potomac TRACON
Sat 01:21:31 PM 38.8667 -78.1167 113° Southeast 155 178 6,500 -571 Descending Potomac TRACON
Sat 01:22:31 PM 38.8500 -78.0667 113° Southeast 147 169 6,000 -550 Descending Potomac TRACON
Sat 01:23:31 PM 38.8500 -78.0167 90° East 149 171 5,400 -632 Descending Potomac TRACON
Sat 01:24:25 PM 38.8333 -77.9667 113° Southeast 148 170 4,800 -526 Descending Potomac TRACON
Sat 01:25:25 PM 38.8167 -77.9167 113° Southeast 139 160 4,400 -450 Descending Potomac TRACON
Sat 01:26:25 PM 38.8167 -77.8667 90° East 129 148 3,900 -400 Descending Potomac TRACON
Sat 01:27:25 PM 38.8000 -77.8333 123° Southeast 125 144 3,600 -350 Descending Potomac TRACON
Sat 01:28:25 PM 38.8000 -77.7833 90° East 128 147 3,200 -347 Descending Potomac TRACON
Sat 01:29:26 PM 38.8000 -77.7333 90° East 126 145 2,900 -298 Descending Potomac TRACON
Sat 01:30:26 PM 38.7833 -77.7000 123° Southeast 125 144 2,600 -400 Descending Potomac TRACON
Sat 01:31:26 PM 38.7833 -77.6500 90° East 127 146 2,100 -429 Descending Potomac TRACON
Sat 01:32:32 PM 38.7667 -77.6000 113° Southeast 122 140 1,700 -381 Descending Potomac TRACON
Sat 01:33:32 PM 38.7667 -77.5667 90° East 103 119 1,300 -450 Descending Potomac TRACON
Sat 01:34:32 PM 38.7500 -77.5333 123° Southeast 99 114 800 -500 Descending Potomac TRACON
Sat 01:36:00 PM 38.7210 -77.5151 103° East  Level Estimated
Sat 01:43:00 PM 38.7210 -77.5151 103° East  Level Estimated
Sat 01:44:00 PM 38.7210 -77.5151 103° East  Level Estimated
Sat 01:45:00 PM 38.7210 -77.5151 103° East  Level Estimated
Sat 01:46:00 PM 38.7210 -77.5151 103° East  Level Estimated
Sat 01:47:00 PM 38.7210 -77.5151 103° East  Level Estimated
Sat 01:48:00 PM 38.7210 -77.5151 103° East  Level Estimated
Sat 01:49:00 PM 38.7210 -77.5151 103° East  Level Estimated
Sat 01:50:00 PM 38.7210 -77.5151 103° East  Level Estimated
Sat 01:51:00 PM 38.7210 -77.5151 103° East  Level Estimated

Login

Don't have an account? Register now (free) for customized features, flight alerts, and more!